sensor_id;sensor_type;location;lat;lon;timestamp;temperature;humidity
16999;DHT22;10211;49.476;11.010;2022-09-16T13:30:32;22.10;87.60
16999;DHT22;10211;49.476;11.010;2022-09-16T13:33:20;21.90;88.40
16999;DHT22;10211;49.476;11.010;2022-09-16T13:35:49;21.50;87.60
16999;DHT22;10211;49.476;11.010;2022-09-16T13:38:33;21.70;88.10
16999;DHT22;10211;49.476;11.010;2022-09-16T13:41:03;21.50;88.90
16999;DHT22;10211;49.476;11.010;2022-09-16T13:43:33;21.00;86.00
16999;DHT22;10211;49.476;11.010;2022-09-16T13:46:07;20.50;86.10
16999;DHT22;10211;49.476;11.010;2022-09-16T13:48:39;20.10;90.50
16999;DHT22;10211;49.476;11.010;2022-09-16T13:51:12;19.80;91.10
16999;DHT22;10211;49.476;11.010;2022-09-16T13:53:44;19.50;92.20
16999;DHT22;10211;49.476;11.010;2022-09-16T13:56:32;18.70;92.30
16999;DHT22;10211;49.476;11.010;2022-09-16T13:59:14;18.10;94.60
16999;DHT22;10211;49.476;11.010;2022-09-16T14:01:50;17.40;97.20
16999;DHT22;10211;49.476;11.010;2022-09-16T14:04:28;16.50;99.70
16999;DHT22;10211;49.476;11.010;2022-09-16T14:07:11;15.90;99.90
16999;DHT22;10211;49.476;11.010;2022-09-16T14:09:51;15.40;99.90
16999;DHT22;10211;49.476;11.010;2022-09-16T14:12:23;15.20;99.90
16999;DHT22;10211;49.476;11.010;2022-09-16T14:14:52;15.10;99.90
16999;DHT22;10211;49.476;11.010;2022-09-16T14:17:23;15.00;99.90
16999;DHT22;10211;49.476;11.010;2022-09-16T14:19:55;14.90;99.90
16999;DHT22;10211;49.476;11.010;2022-09-16T14:22:23;14.80;99.90
16999;DHT22;10211;49.476;11.010;2022-09-16T14:24:53;14.70;99.90
16999;DHT22;10211;49.476;11.010;2022-09-16T14:27:21;14.60;99.90
16999;DHT22;10211;49.476;11.010;2022-09-16T14:29:55;14.30;99.90
16999;DHT22;10211;49.476;11.010;2022-09-16T14:32:25;14.20;99.90
16999;DHT22;10211;49.476;11.010;2022-09-16T14:34:53;14.20;99.90
16999;DHT22;10211;49.476;11.010;2022-09-16T14:37:24;14.50;99.90
16999;DHT22;10211;49.476;11.010;2022-09-16T14:39:53;14.90;99.90
16999;DHT22;10211;49.476;11.010;2022-09-16T14:42:22;15.20;99.90
16999;DHT22;10211;49.476;11.010;2022-09-16T14:44:51;15.40;99.90
16999;DHT22;10211;49.476;11.010;2022-09-16T14:47:22;15.60;99.90
16999;DHT22;10211;49.476;11.010;2022-09-16T14:49:53;15.70;99.90
16999;DHT22;10211;49.476;11.010;2022-09-16T14:52:23;15.70;99.90
16999;DHT22;10211;49.476;11.010;2022-09-16T14:54:51;15.70;99.90
16999;DHT22;10211;49.476;11.010;2022-09-16T14:57:19;15.70;99.90
16999;DHT22;10211;49.476;11.010;2022-09-16T14:59:48;15.90;99.90
16999;DHT22;10211;49.476;11.010;2022-09-16T15:02:17;16.00;99.90
16999;DHT22;10211;49.476;11.010;2022-09-16T15:04:48;15.80;99.90
16999;DHT22;10211;49.476;11.010;2022-09-16T15:07:21;15.70;99.90
16999;DHT22;10211;49.476;11.010;2022-09-16T15:09:51;15.60;99.90
16999;DHT22;10211;49.476;11.010;2022-09-16T15:12:25;15.50;99.90
16999;DHT22;10211;49.476;11.010;2022-09-16T15:14:54;15.40;99.90
16999;DHT22;10211;49.476;11.010;2022-09-16T15:17:22;15.40;99.90
16999;DHT22;10211;49.476;11.010;2022-09-16T15:19:54;15.30;99.90
16999;DHT22;10211;49.476;11.010;2022-09-16T15:22:23;15.20;99.90
16999;DHT22;10211;49.476;11.010;2022-09-16T15:24:54;15.10;99.90
16999;DHT22;10211;49.476;11.010;2022-09-16T15:27:22;15.00;99.90
16999;DHT22;10211;49.476;11.010;2022-09-16T15:29:54;15.10;99.90
16999;DHT22;10211;49.476;11.010;2022-09-16T15:32:24;15.00;99.90
16999;DHT22;10211;49.476;11.010;2022-09-16T15:35:15;15.00;99.90
16999;DHT22;10211;49.476;11.010;2022-09-16T15:37:45;15.10;99.90
16999;DHT22;10211;49.476;11.010;2022-09-16T15:40:29;15.10;99.90
16999;DHT22;10211;49.476;11.010;2022-09-16T15:43:09;15.20;99.90
16999;DHT22;10211;49.476;11.010;2022-09-16T15:45:37;15.20;99.90
16999;DHT22;10211;49.476;11.010;2022-09-16T15:48:06;15.30;99.90
16999;DHT22;10211;49.476;11.010;2022-09-16T15:50:39;15.30;99.90
16999;DHT22;10211;49.476;11.010;2022-09-16T15:53:10;15.20;99.90
16999;DHT22;10211;49.476;11.010;2022-09-16T15:55:41;15.20;99.90
16999;DHT22;10211;49.476;11.010;2022-09-16T15:58:12;15.10;99.90
16999;DHT22;10211;49.476;11.010;2022-09-16T16:01:01;15.00;99.90
16999;DHT22;10211;49.476;11.010;2022-09-16T16:03:31;15.00;99.90
16999;DHT22;10211;49.476;11.010;2022-09-16T16:06:00;15.00;99.90
16999;DHT22;10211;49.476;11.010;2022-09-16T16:08:39;15.00;99.90
16999;DHT22;10211;49.476;11.010;2022-09-16T16:11:08;15.10;99.90
16999;DHT22;10211;49.476;11.010;2022-09-16T16:13:35;15.30;99.90
16999;DHT22;10211;49.476;11.010;2022-09-16T16:16:03;15.60;99.90
16999;DHT22;10211;49.476;11.010;2022-09-16T16:18:31;15.70;99.90
16999;DHT22;10211;49.476;11.010;2022-09-16T16:20:58;15.60;99.90
16999;DHT22;10211;49.476;11.010;2022-09-16T16:23:27;15.30;99.90
16999;DHT22;10211;49.476;11.010;2022-09-16T16:25:55;15.10;99.90
16999;DHT22;10211;49.476;11.010;2022-09-16T16:28:21;14.90;99.90
16999;DHT22;10211;49.476;11.010;2022-09-16T16:30:48;14.90;99.90
16999;DHT22;10211;49.476;11.010;2022-09-16T16:33:15;14.70;99.90
16999;DHT22;10211;49.476;11.010;2022-09-16T16:35:42;14.70;99.90
16999;DHT22;10211;49.476;11.010;2022-09-16T16:38:09;14.60;99.90
16999;DHT22;10211;49.476;11.010;2022-09-16T16:40:35;14.60;99.90
16999;DHT22;10211;49.476;11.010;2022-09-16T16:43:03;14.60;99.90
16999;DHT22;10211;49.476;11.010;2022-09-16T16:45:30;14.70;99.90
16999;DHT22;10211;49.476;11.010;2022-09-16T16:47:57;14.70;99.90
16999;DHT22;10211;49.476;11.010;2022-09-16T16:50:24;14.70;99.90
16999;DHT22;10211;49.476;11.010;2022-09-16T16:52:51;14.60;99.90
16999;DHT22;10211;49.476;11.010;2022-09-16T16:55:18;14.40;99.90
16999;DHT22;10211;49.476;11.010;2022-09-16T16:57:45;14.20;99.90
16999;DHT22;10211;49.476;11.010;2022-09-16T17:00:15;14.10;99.90
16999;DHT22;10211;49.476;11.010;2022-09-16T17:02:43;14.00;99.90
16999;DHT22;10211;49.476;11.010;2022-09-16T17:05:10;13.90;99.90
16999;DHT22;10211;49.476;11.010;2022-09-16T17:07:37;13.80;99.90
16999;DHT22;10211;49.476;11.010;2022-09-16T17:10:04;13.80;99.90
16999;DHT22;10211;49.476;11.010;2022-09-16T17:12:30;13.70;99.90
16999;DHT22;10211;49.476;11.010;2022-09-16T17:14:57;13.60;99.90
16999;DHT22;10211;49.476;11.010;2022-09-16T17:17:26;13.70;99.90
16999;DHT22;10211;49.476;11.010;2022-09-16T17:19:52;13.50;99.90
16999;DHT22;10211;49.476;11.010;2022-09-16T17:22:19;13.40;99.90
16999;DHT22;10211;49.476;11.010;2022-09-16T17:24:46;13.30;99.90
16999;DHT22;10211;49.476;11.010;2022-09-16T17:27:12;13.30;99.90
16999;DHT22;10211;49.476;11.010;2022-09-16T17:29:44;13.20;99.90
16999;DHT22;10211;49.476;11.010;2022-09-16T17:32:11;13.10;99.90
16999;DHT22;10211;49.476;11.010;2022-09-16T17:34:39;13.00;99.90
16999;DHT22;10211;49.476;11.010;2022-09-16T17:37:06;13.00;99.90
16999;DHT22;10211;49.476;11.010;2022-09-16T17:39:33;12.90;99.90
16999;DHT22;10211;49.476;11.010;2022-09-16T17:42:00;12.80;99.90
16999;DHT22;10211;49.476;11.010;2022-09-16T17:44:27;12.80;99.90
16999;DHT22;10211;49.476;11.010;2022-09-16T17:46:54;12.70;99.90
16999;DHT22;10211;49.476;11.010;2022-09-16T17:49:22;12.60;99.90
16999;DHT22;10211;49.476;11.010;2022-09-16T17:51:51;12.60;99.90
16999;DHT22;10211;49.476;11.010;2022-09-16T17:54:19;12.50;99.90
16999;DHT22;10211;49.476;11.010;2022-09-16T17:56:45;12.50;99.90
16999;DHT22;10211;49.476;11.010;2022-09-16T17:59:15;12.40;99.90
16999;DHT22;10211;49.476;11.010;2022-09-16T18:01:42;12.40;99.90
16999;DHT22;10211;49.476;11.010;2022-09-16T18:04:09;12.40;99.90
16999;DHT22;10211;49.476;11.010;2022-09-16T18:06:39;12.30;99.90
16999;DHT22;10211;49.476;11.010;2022-09-16T18:09:08;12.30;99.90
16999;DHT22;10211;49.476;11.010;2022-09-16T18:11:37;12.30;99.90
16999;DHT22;10211;49.476;11.010;2022-09-16T18:14:07;12.30;99.90
16999;DHT22;10211;49.476;11.010;2022-09-16T18:16:35;12.20;99.90
16999;DHT22;10211;49.476;11.010;2022-09-16T18:19:03;12.20;99.90
16999;DHT22;10211;49.476;11.010;2022-09-16T18:21:30;12.20;99.90
16999;DHT22;10211;49.476;11.010;2022-09-16T18:23:59;12.10;99.90
16999;DHT22;10211;49.476;11.010;2022-09-16T18:26:28;12.10;99.90
16999;DHT22;10211;49.476;11.010;2022-09-16T18:28:55;12.10;99.90
16999;DHT22;10211;49.476;11.010;2022-09-16T18:31:23;12.00;99.90
16999;DHT22;10211;49.476;11.010;2022-09-16T18:33:51;12.00;99.90
16999;DHT22;10211;49.476;11.010;2022-09-16T18:36:18;11.90;99.90
16999;DHT22;10211;49.476;11.010;2022-09-16T18:38:49;11.90;99.90
16999;DHT22;10211;49.476;11.010;2022-09-16T18:41:18;11.80;99.90
16999;DHT22;10211;49.476;11.010;2022-09-16T18:43:51;11.80;99.90
16999;DHT22;10211;49.476;11.010;2022-09-16T18:46:19;11.80;99.90
16999;DHT22;10211;49.476;11.010;2022-09-16T18:48:48;11.80;99.90
16999;DHT22;10211;49.476;11.010;2022-09-16T18:51:16;11.70;99.90
16999;DHT22;10211;49.476;11.010;2022-09-16T18:53:47;11.70;99.90
16999;DHT22;10211;49.476;11.010;2022-09-16T18:56:16;11.70;99.90
16999;DHT22;10211;49.476;11.010;2022-09-16T18:58:43;11.60;99.90
16999;DHT22;10211;49.476;11.010;2022-09-16T19:01:24;11.60;99.90
16999;DHT22;10211;49.476;11.010;2022-09-16T19:03:52;11.50;99.90
16999;DHT22;10211;49.476;11.010;2022-09-16T19:06:20;11.50;99.90
16999;DHT22;10211;49.476;11.010;2022-09-16T19:08:48;11.50;99.90
16999;DHT22;10211;49.476;11.010;2022-09-16T19:11:15;11.50;99.90
16999;DHT22;10211;49.476;11.010;2022-09-16T19:13:42;11.40;99.90
16999;DHT22;10211;49.476;11.010;2022-09-16T19:16:09;11.40;99.90
16999;DHT22;10211;49.476;11.010;2022-09-16T19:18:37;11.30;99.90
16999;DHT22;10211;49.476;11.010;2022-09-16T19:21:04;11.30;99.90
16999;DHT22;10211;49.476;11.010;2022-09-16T19:23:31;11.30;99.90
16999;DHT22;10211;49.476;11.010;2022-09-16T19:26:02;11.30;99.90
16999;DHT22;10211;49.476;11.010;2022-09-16T19:28:29;11.30;99.90
16999;DHT22;10211;49.476;11.010;2022-09-16T19:31:01;11.30;99.90
16999;DHT22;10211;49.476;11.010;2022-09-16T19:33:28;11.30;99.90
16999;DHT22;10211;49.476;11.010;2022-09-16T19:35:56;11.20;99.90
16999;DHT22;10211;49.476;11.010;2022-09-16T19:38:23;11.10;99.90
16999;DHT22;10211;49.476;11.010;2022-09-16T19:40:59;11.10;99.90
16999;DHT22;10211;49.476;11.010;2022-09-16T19:43:26;11.10;99.90
16999;DHT22;10211;49.476;11.010;2022-09-16T19:45:52;11.00;99.90
16999;DHT22;10211;49.476;11.010;2022-09-16T19:48:20;11.00;99.90
16999;DHT22;10211;49.476;11.010;2022-09-16T19:50:49;11.00;99.90
16999;DHT22;10211;49.476;11.010;2022-09-16T19:53:18;11.00;99.90
16999;DHT22;10211;49.476;11.010;2022-09-16T19:55:45;10.90;99.90
16999;DHT22;10211;49.476;11.010;2022-09-16T19:58:12;10.90;99.90
16999;DHT22;10211;49.476;11.010;2022-09-16T20:00:38;11.00;99.90
16999;DHT22;10211;49.476;11.010;2022-09-16T20:03:05;11.00;99.90
16999;DHT22;10211;49.476;11.010;2022-09-16T20:05:32;10.90;99.90
16999;DHT22;10211;49.476;11.010;2022-09-16T20:07:58;10.90;99.90
16999;DHT22;10211;49.476;11.010;2022-09-16T20:10:27;10.90;99.90
16999;DHT22;10211;49.476;11.010;2022-09-16T20:12:53;10.90;99.90
16999;DHT22;10211;49.476;11.010;2022-09-16T20:15:20;10.90;99.90
16999;DHT22;10211;49.476;11.010;2022-09-16T20:17:47;10.80;99.90
16999;DHT22;10211;49.476;11.010;2022-09-16T20:20:14;10.80;99.90
16999;DHT22;10211;49.476;11.010;2022-09-16T20:22:41;10.80;99.90
16999;DHT22;10211;49.476;11.010;2022-09-16T20:25:07;10.80;99.90
16999;DHT22;10211;49.476;11.010;2022-09-16T20:27:36;10.70;99.90
16999;DHT22;10211;49.476;11.010;2022-09-16T20:30:03;10.70;99.90
16999;DHT22;10211;49.476;11.010;2022-09-16T20:32:30;10.60;99.90
16999;DHT22;10211;49.476;11.010;2022-09-16T20:34:56;10.60;99.90
16999;DHT22;10211;49.476;11.010;2022-09-16T20:37:23;10.50;99.90
16999;DHT22;10211;49.476;11.010;2022-09-16T20:39:50;10.50;99.90
16999;DHT22;10211;49.476;11.010;2022-09-16T20:42:16;10.40;99.90
16999;DHT22;10211;49.476;11.010;2022-09-16T20:44:44;10.30;99.90
16999;DHT22;10211;49.476;11.010;2022-09-16T20:47:11;10.30;99.90
16999;DHT22;10211;49.476;11.010;2022-09-16T20:49:38;10.40;99.90
16999;DHT22;10211;49.476;11.010;2022-09-16T20:52:05;10.20;99.90
16999;DHT22;10211;49.476;11.010;2022-09-16T20:54:31;10.20;99.90
16999;DHT22;10211;49.476;11.010;2022-09-16T20:56:58;10.20;99.90
16999;DHT22;10211;49.476;11.010;2022-09-16T20:59:25;10.30;99.90
16999;DHT22;10211;49.476;11.010;2022-09-16T21:01:53;10.30;99.90
16999;DHT22;10211;49.476;11.010;2022-09-16T21:04:20;10.30;99.90
16999;DHT22;10211;49.476;11.010;2022-09-16T21:06:47;10.40;99.90
16999;DHT22;10211;49.476;11.010;2022-09-16T21:09:14;10.40;99.90
16999;DHT22;10211;49.476;11.010;2022-09-16T21:11:43;10.40;99.90
16999;DHT22;10211;49.476;11.010;2022-09-16T21:14:11;10.40;99.90
16999;DHT22;10211;49.476;11.010;2022-09-16T21:16:40;10.30;99.90
16999;DHT22;10211;49.476;11.010;2022-09-16T21:19:09;10.30;99.90
16999;DHT22;10211;49.476;11.010;2022-09-16T21:21:39;10.30;99.90
16999;DHT22;10211;49.476;11.010;2022-09-16T21:24:06;10.30;99.90
16999;DHT22;10211;49.476;11.010;2022-09-16T21:26:35;10.20;99.90
16999;DHT22;10211;49.476;11.010;2022-09-16T21:29:04;10.20;99.90
16999;DHT22;10211;49.476;11.010;2022-09-16T21:31:31;10.10;99.90
16999;DHT22;10211;49.476;11.010;2022-09-16T21:33:59;10.00;99.90
16999;DHT22;10211;49.476;11.010;2022-09-16T21:36:28;10.00;99.90
16999;DHT22;10211;49.476;11.010;2022-09-16T21:38:56;10.00;99.90
16999;DHT22;10211;49.476;11.010;2022-09-16T21:41:24;9.90;99.90
16999;DHT22;10211;49.476;11.010;2022-09-16T21:43:53;9.90;99.90
16999;DHT22;10211;49.476;11.010;2022-09-16T21:46:22;9.90;99.90
16999;DHT22;10211;49.476;11.010;2022-09-16T21:48:51;9.80;99.90
16999;DHT22;10211;49.476;11.010;2022-09-16T21:51:19;9.80;99.90
16999;DHT22;10211;49.476;11.010;2022-09-16T21:53:47;9.80;99.90
16999;DHT22;10211;49.476;11.010;2022-09-16T21:56:16;9.70;99.90
16999;DHT22;10211;49.476;11.010;2022-09-16T21:58:43;9.70;99.90
16999;DHT22;10211;49.476;11.010;2022-09-16T22:01:12;9.60;99.90
16999;DHT22;10211;49.476;11.010;2022-09-16T22:03:40;9.60;99.90
16999;DHT22;10211;49.476;11.010;2022-09-16T22:06:08;9.60;99.90
16999;DHT22;10211;49.476;11.010;2022-09-16T22:08:36;9.60;99.90
16999;DHT22;10211;49.476;11.010;2022-09-16T22:11:05;9.60;99.90
16999;DHT22;10211;49.476;11.010;2022-09-16T22:13:33;9.60;99.90
16999;DHT22;10211;49.476;11.010;2022-09-16T22:16:00;9.60;99.90
16999;DHT22;10211;49.476;11.010;2022-09-16T22:18:29;9.50;99.90
16999;DHT22;10211;49.476;11.010;2022-09-16T22:21:01;9.50;99.90
16999;DHT22;10211;49.476;11.010;2022-09-16T22:23:27;9.50;99.90
16999;DHT22;10211;49.476;11.010;2022-09-16T22:25:54;9.40;99.90
16999;DHT22;10211;49.476;11.010;2022-09-16T22:28:22;9.40;99.90
16999;DHT22;10211;49.476;11.010;2022-09-16T22:30:49;9.40;99.90
16999;DHT22;10211;49.476;11.010;2022-09-16T22:33:16;9.40;99.90
16999;DHT22;10211;49.476;11.010;2022-09-16T22:35:43;9.30;99.90
16999;DHT22;10211;49.476;11.010;2022-09-16T22:38:10;9.60;99.90
16999;DHT22;10211;49.476;11.010;2022-09-16T22:40:36;9.30;99.90
16999;DHT22;10211;49.476;11.010;2022-09-16T22:43:03;9.30;99.90
16999;DHT22;10211;49.476;11.010;2022-09-16T22:45:31;9.20;99.90
16999;DHT22;10211;49.476;11.010;2022-09-16T22:47:58;9.20;99.90
16999;DHT22;10211;49.476;11.010;2022-09-16T22:50:24;9.20;99.90
16999;DHT22;10211;49.476;11.010;2022-09-16T22:52:51;9.20;99.90
16999;DHT22;10211;49.476;11.010;2022-09-16T22:55:18;9.20;99.90
16999;DHT22;10211;49.476;11.010;2022-09-16T22:57:44;9.20;99.90
16999;DHT22;10211;49.476;11.010;2022-09-16T23:00:12;9.20;99.90
16999;DHT22;10211;49.476;11.010;2022-09-16T23:02:40;9.20;99.90
16999;DHT22;10211;49.476;11.010;2022-09-16T23:05:07;9.20;99.90
16999;DHT22;10211;49.476;11.010;2022-09-16T23:07:35;9.20;99.90
16999;DHT22;10211;49.476;11.010;2022-09-16T23:10:01;9.10;99.90
16999;DHT22;10211;49.476;11.010;2022-09-16T23:12:28;9.10;99.90
16999;DHT22;10211;49.476;11.010;2022-09-16T23:14:55;9.00;99.90
16999;DHT22;10211;49.476;11.010;2022-09-16T23:17:23;9.00;99.90
16999;DHT22;10211;49.476;11.010;2022-09-16T23:19:51;8.90;99.90
16999;DHT22;10211;49.476;11.010;2022-09-16T23:22:19;8.90;99.90
16999;DHT22;10211;49.476;11.010;2022-09-16T23:24:45;8.90;99.90
16999;DHT22;10211;49.476;11.010;2022-09-16T23:27:12;8.90;99.90
16999;DHT22;10211;49.476;11.010;2022-09-16T23:29:39;8.90;99.90
16999;DHT22;10211;49.476;11.010;2022-09-16T23:32:05;8.90;99.90
16999;DHT22;10211;49.476;11.010;2022-09-16T23:34:32;8.90;99.90
16999;DHT22;10211;49.476;11.010;2022-09-16T23:37:00;8.90;99.90
16999;DHT22;10211;49.476;11.010;2022-09-16T23:39:27;8.90;99.90
16999;DHT22;10211;49.476;11.010;2022-09-16T23:41:54;8.90;99.90
16999;DHT22;10211;49.476;11.010;2022-09-16T23:44:21;8.90;99.90
16999;DHT22;10211;49.476;11.010;2022-09-16T23:46:50;8.90;99.90
16999;DHT22;10211;49.476;11.010;2022-09-16T23:49:16;8.90;99.90
16999;DHT22;10211;49.476;11.010;2022-09-16T23:51:45;8.90;99.90
16999;DHT22;10211;49.476;11.010;2022-09-16T23:54:13;8.90;99.90
16999;DHT22;10211;49.476;11.010;2022-09-16T23:56:41;8.90;99.90
16999;DHT22;10211;49.476;11.010;2022-09-16T23:59:08;8.90;99.90
